Time;durP1;ratioP1;P1;durP2;ratioP2;P2;SDS_P1;SDS_P2;PMS_P1;PMS_P2;Temp;Humidity;BMP_temperature;BMP_pressure;BME280_temperature;BME280_humidity;BME280_pressure;Samples;Min_cycle;Max_cycle;Signal;HPM_P1;HPM_P2
2021/08/16 00:02:06;;;;;;;11.83;7.67;;;;;;;19.14;86.70;96198.78;2594991;54;20423;-73
2021/08/16 00:04:37;;;;;;;12.80;8.30;;;;;;;18.98;88.29;96198.81;2594348;36;20732;-73
2021/08/16 00:07:07;;;;;;;12.50;8.40;;;;;;;18.78;89.06;96195.66;2594789;54;20415;-74
2021/08/16 00:09:36;;;;;;;13.50;9.90;;;;;;;18.80;89.25;96193.69;2594063;36;20414;-74
2021/08/16 00:12:08;;;;;;;14.40;7.67;;;;;;;18.95;87.13;96185.84;2594754;54;20415;-74
2021/08/16 00:14:38;;;;;;;12.50;7.67;;;;;;;19.01;86.77;96190.50;2594528;36;20446;-74
2021/08/16 00:17:11;;;;;;;16.57;8.63;;;;;;;18.71;88.64;96187.50;2594543;39;20822;-75
2021/08/16 00:19:42;;;;;;;15.23;9.53;;;;;;;18.72;88.96;96191.81;2594331;36;20913;-74
2021/08/16 00:22:12;;;;;;;19.23;8.97;;;;;;;18.91;87.37;96185.38;2594593;54;20970;-73
2021/08/16 00:24:41;;;;;;;15.23;8.40;;;;;;;19.10;86.42;96170.09;2594338;36;20965;-73
2021/08/16 00:27:11;;;;;;;17.10;8.10;;;;;;;19.18;85.40;96167.41;2594177;54;20506;-74
2021/08/16 00:29:41;;;;;;;19.07;8.17;;;;;;;19.27;85.35;96178.84;2594223;36;20441;-75
2021/08/16 00:32:14;;;;;;;14.37;8.27;;;;;;;19.33;85.68;96180.84;2594387;47;20470;-74
2021/08/16 00:34:44;;;;;;;14.80;8.80;;;;;;;19.16;86.55;96178.19;2595481;31;20906;-76
2021/08/16 00:37:13;;;;;;;14.53;8.43;;;;;;;19.35;84.62;96181.50;2595123;54;20930;-74
2021/08/16 00:39:43;;;;;;;10.47;7.80;;;;;;;19.36;84.46;96178.63;2594469;36;20470;-74
2021/08/16 00:42:13;;;;;;;17.43;8.00;;;;;;;19.41;83.73;96175.50;2594709;54;21019;-75
2021/08/16 00:44:43;;;;;;;12.87;7.37;;;;;;;19.42;83.38;96171.81;2594890;36;20419;-72
2021/08/16 00:47:16;;;;;;;15.70;7.53;;;;;;;19.48;82.62;96163.19;2594926;54;20446;-78
2021/08/16 00:49:47;;;;;;;16.73;7.40;;;;;;;19.50;83.66;96158.53;2593602;36;21268;-73
2021/08/16 00:52:17;;;;;;;11.30;7.40;;;;;;;19.47;83.56;96156.22;2594165;54;20431;-73
2021/08/16 00:54:47;;;;;;;15.60;8.23;;;;;;;19.55;83.12;96156.19;2595495;36;20454;-73
2021/08/16 00:57:17;;;;;;;15.53;7.20;;;;;;;19.35;86.73;96152.28;2595265;54;20430;-74
2021/08/16 00:59:48;;;;;;;21.10;8.47;;;;;;;19.28;87.05;96141.50;2595224;36;20427;-74
2021/08/16 01:02:20;;;;;;;14.90;7.90;;;;;;;19.26;87.52;96148.00;2596638;54;20481;-74
2021/08/16 01:04:50;;;;;;;19.53;8.33;;;;;;;19.24;87.54;96155.28;2595761;31;20791;-73
2021/08/16 01:07:21;;;;;;;19.43;8.00;;;;;;;19.05;88.40;96160.00;2595117;54;20446;-74
2021/08/16 01:09:51;;;;;;;13.67;8.70;;;;;;;18.84;90.38;96159.69;2595382;31;20813;-73
2021/08/16 01:12:20;;;;;;;16.80;8.20;;;;;;;18.76;89.26;96169.28;2594199;47;20911;-73
2021/08/16 01:14:50;;;;;;;19.20;9.20;;;;;;;18.94;87.86;96169.13;2594490;36;20903;-72
2021/08/16 01:17:23;;;;;;;16.60;7.57;;;;;;;18.96;86.35;96177.75;2595285;54;20394;-73
2021/08/16 01:19:53;;;;;;;16.53;8.90;;;;;;;19.01;87.45;96171.91;2594925;36;20774;-73
2021/08/16 01:22:23;;;;;;;18.37;9.00;;;;;;;18.91;87.53;96160.66;2595955;54;20458;-74
2021/08/16 01:24:53;;;;;;;18.70;8.33;;;;;;;18.90;87.90;96166.97;2595270;36;20538;-73
2021/08/16 01:27:25;;;;;;;17.10;9.13;;;;;;;18.90;86.17;96165.16;2595186;54;20390;-73
2021/08/16 01:29:55;;;;;;;21.83;7.70;;;;;;;19.05;85.20;96165.31;2594751;36;21245;-73
2021/08/16 01:32:25;;;;;;;19.73;8.67;;;;;;;19.04;85.88;96165.47;2593780;54;21262;-74
2021/08/16 01:34:55;;;;;;;15.77;7.73;;;;;;;19.10;85.98;96155.00;2594638;36;21005;-73
2021/08/16 01:37:25;;;;;;;12.20;7.40;;;;;;;19.02;86.60;96154.19;2594311;54;20941;-74
2021/08/16 01:39:55;;;;;;;20.90;7.70;;;;;;;19.05;85.93;96162.66;2594093;36;20988;-73
2021/08/16 01:42:27;;;;;;;11.03;6.90;;;;;;;19.17;84.44;96153.31;2594299;54;20426;-73
2021/08/16 01:44:57;;;;;;;21.17;8.10;;;;;;;19.28;84.45;96148.66;2593527;36;20475;-73
2021/08/16 01:47:27;;;;;;;17.87;8.23;;;;;;;19.34;83.94;96154.09;2594620;54;20918;-74
2021/08/16 01:49:56;;;;;;;17.17;7.80;;;;;;;19.32;83.61;96149.97;2594397;36;20445;-74
2021/08/16 01:52:26;;;;;;;12.50;7.67;;;;;;;19.42;83.58;96147.94;2594687;54;20383;-74
2021/08/16 01:54:56;;;;;;;11.30;7.90;;;;;;;19.46;83.64;96149.22;2594448;36;20419;-74
2021/08/16 01:57:28;;;;;;;14.10;7.37;;;;;;;19.39;84.28;96145.63;2595482;54;20411;-73
2021/08/16 01:59:58;;;;;;;13.07;8.27;;;;;;;19.32;84.26;96155.28;2594765;36;20754;-74
2021/08/16 02:02:28;;;;;;;15.83;8.57;;;;;;;19.26;85.28;96150.66;2594721;39;20760;-74
2021/08/16 02:04:58;;;;;;;17.70;7.33;;;;;;;19.06;86.01;96156.34;2593994;36;20866;-73
2021/08/16 02:07:30;;;;;;;17.00;8.70;;;;;;;19.13;85.09;96159.13;2594109;39;20458;-74
2021/08/16 02:10:00;;;;;;;27.27;9.13;;;;;;;18.90;87.61;96159.84;2593229;36;20419;-73
2021/08/16 02:12:32;;;;;;;17.40;7.80;;;;;;;18.72;87.60;96161.84;2595366;54;20379;-73
2021/08/16 02:15:02;;;;;;;15.83;9.00;;;;;;;18.61;87.96;96162.97;2596137;36;20427;-74
2021/08/16 02:17:32;;;;;;;24.03;9.73;;;;;;;18.57;88.77;96166.97;2594472;54;20450;-74
2021/08/16 02:20:02;;;;;;;12.80;8.17;;;;;;;18.59;88.53;96170.28;2594346;36;20942;-74
2021/08/16 02:22:32;;;;;;;16.53;9.03;;;;;;;18.50;89.63;96171.25;2593949;54;20603;-74
2021/08/16 02:25:02;;;;;;;15.90;8.57;;;;;;;18.61;88.92;96178.88;2594222;36;20431;-74
2021/08/16 02:27:34;;;;;;;21.83;9.20;;;;;;;18.53;89.20;96186.84;2594034;47;20427;-74
2021/08/16 02:30:04;;;;;;;18.07;10.40;;;;;;;18.51;90.14;96186.19;2594206;36;20463;-74
2021/08/16 02:32:34;;;;;;;13.77;8.37;;;;;;;18.50;90.13;96192.47;2594534;54;20419;-73
2021/08/16 02:35:04;;;;;;;21.83;8.60;;;;;;;18.62;89.88;96195.63;2594029;31;20602;-74
2021/08/16 02:37:34;;;;;;;18.77;9.27;;;;;;;18.61;89.46;96199.28;2593684;39;21212;-73
2021/08/16 02:40:04;;;;;;;16.87;9.03;;;;;;;18.63;88.73;96198.13;2594033;31;20968;-75
2021/08/16 02:42:36;;;;;;;16.40;8.30;;;;;;;18.78;87.74;96201.78;2594213;54;20431;-74
2021/08/16 02:45:12;;;;;;;14.63;8.43;;;;;;;18.85;86.68;96195.81;2593800;36;20410;-75
2021/08/16 02:47:44;;;;;;;14.10;8.03;;;;;;;19.02;85.31;96196.66;2594060;54;20958;-76
2021/08/16 02:50:15;;;;;;;21.13;8.60;;;;;;;19.07;85.23;96200.47;2593512;31;20950;-74
2021/08/16 02:52:45;;;;;;;21.60;8.00;;;;;;;19.14;84.51;96206.72;2594786;54;20920;-74
2021/08/16 02:55:15;;;;;;;16.17;7.70;;;;;;;19.00;85.01;96212.72;2594007;36;20946;-75
2021/08/16 02:57:47;;;;;;;19.47;7.90;;;;;;;19.08;84.01;96207.41;2593862;54;20463;-74
2021/08/16 03:00:18;;;;;;;16.10;7.60;;;;;;;19.09;83.73;96202.91;2593662;36;20438;-71
2021/08/16 03:02:48;;;;;;;15.13;7.80;;;;;;;19.10;83.58;96202.75;2593482;54;20470;-72
2021/08/16 03:05:18;;;;;;;13.30;8.10;;;;;;;19.12;83.24;96207.91;2593119;36;20933;-74
2021/08/16 03:07:48;;;;;;;15.03;7.63;;;;;;;19.18;82.81;96209.88;2593725;54;20474;-74
2021/08/16 03:10:19;;;;;;;11.67;7.53;;;;;;;19.17;82.89;96206.41;2593899;36;20443;-74
2021/08/16 03:12:51;;;;;;;10.13;6.83;;;;;;;19.16;82.26;96202.09;2594107;54;20953;-73
2021/08/16 03:15:21;;;;;;;17.30;7.80;;;;;;;19.20;82.75;96217.69;2594000;36;20419;-76
2021/08/16 03:17:51;;;;;;;11.90;7.07;;;;;;;19.30;81.94;96224.44;2594774;39;20848;-75
2021/08/16 03:20:22;;;;;;;9.60;7.50;;;;;;;19.09;83.41;96226.81;2594420;36;20897;-73
2021/08/16 03:22:52;;;;;;;18.00;7.00;;;;;;;18.86;84.51;96229.31;2595095;31;20925;-73
2021/08/16 03:25:21;;;;;;;10.80;7.10;;;;;;;18.82;84.84;96239.44;2594574;36;20969;-74
2021/08/16 03:27:54;;;;;;;14.60;7.40;;;;;;;18.80;84.16;96233.47;2594943;54;20427;-74
2021/08/16 03:30:24;;;;;;;10.30;7.03;;;;;;;18.88;84.33;96238.78;2593645;36;20419;-74
2021/08/16 03:32:54;;;;;;;10.77;7.20;;;;;;;18.98;83.54;96246.56;2595656;54;20914;-75
2021/08/16 03:35:24;;;;;;;11.57;7.80;;;;;;;19.01;84.06;96246.22;2593938;36;20861;-75
2021/08/16 03:37:53;;;;;;;10.87;7.67;;;;;;;18.83;85.44;96249.03;2594544;54;20415;-74
2021/08/16 03:40:24;;;;;;;17.97;9.57;;;;;;;18.64;87.09;96250.16;2594332;31;20426;-74
2021/08/16 03:42:56;;;;;;;16.90;8.13;;;;;;;18.81;84.80;96244.91;2594923;54;20470;-73
2021/08/16 03:45:26;;;;;;;16.93;8.10;;;;;;;18.98;83.61;96254.53;2594481;36;20901;-74
2021/08/16 03:47:56;;;;;;;24.97;7.60;;;;;;;18.91;84.29;96261.47;2594888;54;21512;-73
2021/08/16 03:50:26;;;;;;;13.23;7.30;;;;;;;18.81;85.87;96258.16;2594427;36;20403;-74
2021/08/16 03:52:56;;;;;;;14.93;8.37;;;;;;;18.75;86.53;96262.25;2594596;54;20415;-73
2021/08/16 03:55:26;;;;;;;19.50;8.80;;;;;;;18.60;86.97;96256.78;2594648;36;20771;-74
2021/08/16 03:57:58;;;;;;;15.33;8.30;;;;;;;18.66;86.25;96269.41;2595304;39;21024;-73
2021/08/16 04:00:28;;;;;;;20.10;8.87;;;;;;;18.44;86.56;96259.41;2594782;31;20771;-75
2021/08/16 04:02:58;;;;;;;13.77;7.97;;;;;;;18.54;85.34;96260.06;2594156;54;20535;-73
2021/08/16 04:05:29;;;;;;;12.03;7.83;;;;;;;18.47;86.00;96273.16;2593927;36;20485;-75
2021/08/16 04:07:58;;;;;;;14.53;7.90;;;;;;;18.43;86.39;96278.97;2594347;54;20494;-74
2021/08/16 04:10:28;;;;;;;13.23;7.67;;;;;;;18.32;85.94;96264.19;2594484;31;20800;-75
2021/08/16 04:13:01;;;;;;;16.47;7.57;;;;;;;18.12;87.98;96282.19;2595195;54;20419;-74
2021/08/16 04:15:31;;;;;;;16.20;7.80;;;;;;;18.11;87.87;96280.50;2594394;31;20972;-74
2021/08/16 04:18:01;;;;;;;16.53;7.90;;;;;;;18.06;86.13;96272.22;2593873;54;21172;-74
2021/08/16 04:20:30;;;;;;;20.37;7.80;;;;;;;18.18;85.59;96278.88;2594131;36;20758;-74
2021/08/16 04:23:00;;;;;;;13.00;6.97;;;;;;;17.95;86.44;96279.47;2593760;54;20442;-73
2021/08/16 04:25:30;;;;;;;14.57;6.90;;;;;;;17.94;85.28;96279.63;2593718;36;20426;-74
2021/08/16 04:28:04;;;;;;;15.40;7.87;;;;;;;17.93;85.30;96292.03;2593877;47;20914;-73
2021/08/16 04:30:34;;;;;;;12.30;6.50;;;;;;;17.91;85.98;96294.00;2595276;36;20465;-75
2021/08/16 04:33:04;;;;;;;16.80;7.13;;;;;;;17.89;86.14;96268.66;2595944;54;20484;-74
2021/08/16 04:35:34;;;;;;;11.30;6.70;;;;;;;17.90;85.82;96280.94;2598575;36;20822;-75
2021/08/16 04:38:04;;;;;;;15.53;7.63;;;;;;;17.85;85.25;96292.00;2595396;39;20750;-74
2021/08/16 04:40:34;;;;;;;20.77;8.30;;;;;;;17.73;86.52;96285.28;2595523;36;20786;-74
2021/08/16 04:43:07;;;;;;;13.03;5.97;;;;;;;17.58;86.18;96266.50;2595444;54;20534;-75
2021/08/16 04:45:37;;;;;;;15.80;6.67;;;;;;;17.69;86.95;96276.81;2596014;36;21018;-74
2021/08/16 04:48:07;;;;;;;20.23;7.00;;;;;;;17.76;86.69;96275.22;2596110;39;20861;-74
2021/08/16 04:50:37;;;;;;;12.30;6.47;;;;;;;17.74;85.93;96263.94;2595034;36;20442;-74
2021/08/16 04:53:07;;;;;;;13.40;5.83;;;;;;;17.67;84.98;96270.03;2596203;54;20423;-74
2021/08/16 04:55:37;;;;;;;17.73;7.97;;;;;;;17.68;86.42;96277.81;2594920;36;20806;-74
2021/08/16 04:58:09;;;;;;;10.50;6.23;;;;;;;17.79;83.75;96284.66;2594944;39;20484;-74
2021/08/16 05:00:40;;;;;;;22.57;7.77;;;;;;;17.74;84.18;96279.84;2594381;36;20418;-75
2021/08/16 05:03:10;;;;;;;18.50;7.30;;;;;;;17.76;84.50;96284.97;2593725;49;20430;-75
2021/08/16 05:05:47;;;;;;;11.90;7.40;;;;;;;17.75;84.44;96280.66;2594401;36;20786;-74
2021/08/16 05:08:17;;;;;;;13.60;6.90;;;;;;;17.71;84.51;96292.56;2595994;39;20774;-74
2021/08/16 05:10:49;;;;;;;14.07;6.33;;;;;;;17.75;83.32;96293.91;2596396;36;21152;-73
2021/08/16 05:13:21;;;;;;;14.33;6.90;;;;;;;17.86;83.34;96306.91;2596022;54;20403;-76
2021/08/16 05:15:51;;;;;;;11.50;6.10;;;;;;;17.91;82.84;96315.19;2560273;54;2004355;-74
2021/08/16 05:18:21;;;;;;;15.60;6.20;;;;;;;17.89;83.53;96316.34;2594857;31;20884;-75
2021/08/16 05:20:51;;;;;;;17.43;7.10;;;;;;;17.85;83.09;96304.41;2594929;47;21571;-74
2021/08/16 05:23:21;;;;;;;21.40;7.10;;;;;;;17.81;82.66;96303.84;2596472;36;20901;-74
2021/08/16 05:25:51;;;;;;;13.33;6.60;;;;;;;17.96;82.73;96318.22;2595971;54;20954;-74
2021/08/16 05:28:24;;;;;;;16.50;5.30;;;;;;;18.02;82.04;96313.28;2595367;36;20978;-74
2021/08/16 05:30:54;;;;;;;11.33;5.73;;;;;;;18.20;82.51;96319.31;2594726;54;20423;-74
2021/08/16 05:33:24;;;;;;;11.47;5.67;;;;;;;18.13;82.23;96311.16;2595672;36;20454;-73
2021/08/16 05:35:54;;;;;;;10.67;6.20;;;;;;;18.25;80.55;96313.50;2596086;54;20994;-73
2021/08/16 05:38:25;;;;;;;14.93;6.80;;;;;;;18.33;81.61;96329.47;2594830;31;20809;-75
2021/08/16 05:40:54;;;;;;;18.80;5.70;;;;;;;18.42;80.00;96347.03;2595771;54;20422;-75
2021/08/16 05:43:27;;;;;;;18.27;5.30;;;;;;;18.37;80.37;96355.47;2594441;36;20940;-74
2021/08/16 05:45:57;;;;;;;10.60;4.90;;;;;;;18.25;79.00;96353.25;2595245;54;20965;-73
2021/08/16 05:48:26;;;;;;;8.27;4.43;;;;;;;18.41;78.43;96357.81;2595523;36;21075;-74
2021/08/16 05:50:56;;;;;;;16.57;5.30;;;;;;;18.47;78.18;96357.19;2594613;54;20422;-74
2021/08/16 05:53:26;;;;;;;8.03;4.60;;;;;;;18.42;78.80;96348.88;2595289;31;21126;-76
2021/08/16 05:55:56;;;;;;;8.17;4.40;;;;;;;18.86;78.84;96351.34;2595014;39;21100;-74
2021/08/16 05:58:29;;;;;;;10.00;5.20;;;;;;;18.97;77.97;96351.00;2594438;36;20458;-75
2021/08/16 06:00:59;;;;;;;8.83;5.00;;;;;;;19.01;76.99;96352.34;2595098;54;20430;-74
2021/08/16 06:03:29;;;;;;;11.43;5.97;;;;;;;19.16;77.19;96361.31;2594955;36;20809;-75
2021/08/16 06:05:59;;;;;;;14.60;5.83;;;;;;;19.17;77.20;96351.56;2594638;39;20831;-77
2021/08/16 06:08:29;;;;;;;15.23;5.83;;;;;;;19.17;78.04;96357.69;2595425;36;20375;-75
2021/08/16 06:10:59;;;;;;;21.70;6.30;;;;;;;19.05;77.94;96351.06;2595213;54;20391;-74
2021/08/16 06:13:32;;;;;;;10.30;4.67;;;;;;;19.21;76.67;96357.34;2594684;36;20736;-73
2021/08/16 06:16:01;;;;;;;17.70;5.77;;;;;;;19.22;75.57;96357.19;2595765;54;20418;-73
2021/08/16 06:18:31;;;;;;;7.13;4.73;;;;;;;19.28;74.88;96361.00;2594611;36;20982;-74
2021/08/16 06:21:01;;;;;;;7.07;4.20;;;;;;;19.35;73.68;96367.31;2595032;54;20434;-74
2021/08/16 06:23:31;;;;;;;17.90;4.43;;;;;;;19.30;74.73;96364.31;2595393;36;20419;-74
2021/08/16 06:26:01;;;;;;;10.63;4.40;;;;;;;19.42;74.21;96373.59;2594818;54;20410;-74
2021/08/16 06:28:34;;;;;;;7.03;3.87;;;;;;;19.55;72.23;96371.28;2594056;36;20766;-73
2021/08/16 06:31:03;;;;;;;9.83;4.17;;;;;;;19.41;72.75;96377.28;2594853;54;20411;-72
2021/08/16 06:33:35;;;;;;;6.70;4.07;;;;;;;19.48;71.08;96372.13;2594477;36;20818;-74
2021/08/16 06:36:06;;;;;;;9.87;3.80;;;;;;;19.36;70.93;96374.28;2594364;31;20894;-72
2021/08/16 06:38:45;;;;;;;12.20;3.40;;;;;;;19.61;70.56;96387.56;2593781;36;21074;-72
2021/08/16 06:41:16;;;;;;;6.83;4.53;;;;;;;20.04;69.02;96377.56;2596017;54;20418;-74
2021/08/16 06:43:49;;;;;;;8.43;3.30;;;;;;;19.58;68.98;96386.03;2596313;36;20661;-73
2021/08/16 06:46:19;;;;;;;9.17;3.40;;;;;;;19.79;67.71;96387.41;2594970;54;20426;-73
2021/08/16 06:48:49;;;;;;;7.87;3.53;;;;;;;19.82;67.47;96390.56;2596694;36;21014;-73
2021/08/16 06:51:19;;;;;;;7.90;3.60;;;;;;;19.85;65.93;96400.81;2594076;54;20419;-74
2021/08/16 06:53:49;;;;;;;11.77;4.00;;;;;;;20.06;66.37;96396.81;2593764;36;20910;-74
2021/08/16 06:56:18;;;;;;;9.63;3.70;;;;;;;19.73;66.24;96402.19;2599184;54;20434;-75
2021/08/16 06:58:51;;;;;;;9.40;4.33;;;;;;;19.77;67.12;96403.50;2593610;36;20419;-74
2021/08/16 07:01:34;;;;;;;9.23;4.00;;;;;;;19.86;65.81;96418.44;2594306;39;20756;-75
2021/08/16 07:04:05;;;;;;;18.33;8.50;;;;;;;20.11;65.96;96413.91;2594955;36;20734;-74
2021/08/16 07:06:35;;;;;;;14.50;6.60;;;;;;;20.27;65.37;96414.88;2594367;54;21244;-73
2021/08/16 07:09:05;;;;;;;8.70;3.40;;;;;;;20.46;64.83;96416.31;2594664;36;20913;-73
2021/08/16 07:11:35;;;;;;;7.37;3.20;;;;;;;20.26;64.20;96410.56;2595837;54;21535;-74
2021/08/16 07:14:07;;;;;;;6.43;3.00;;;;;;;20.45;62.54;96417.31;2595383;36;20426;-73
2021/08/16 07:16:37;;;;;;;10.53;3.27;;;;;;;20.85;62.91;96412.84;2595462;54;20946;-73
2021/08/16 07:19:07;;;;;;;8.33;2.73;;;;;;;21.13;61.10;96411.34;2595203;31;20778;-73
2021/08/16 07:21:37;;;;;;;6.53;2.73;;;;;;;21.19;61.60;96414.31;2594689;54;20433;-73
2021/08/16 07:24:07;;;;;;;6.53;3.77;;;;;;;21.83;59.91;96425.50;2594481;36;20906;-74
2021/08/16 07:26:37;;;;;;;12.17;3.53;;;;;;;21.45;60.18;96430.81;2595940;54;20423;-73
2021/08/16 07:29:10;;;;;;;5.07;3.37;;;;;;;21.64;59.75;96434.84;2595345;36;20461;-74
2021/08/16 07:31:40;;;;;;;6.33;3.40;;;;;;;20.89;61.45;96430.13;2595196;54;20427;-73
2021/08/16 07:34:10;;;;;;;10.07;3.90;;;;;;;20.89;61.79;96432.78;2595127;36;20465;-73
2021/08/16 07:36:40;;;;;;;8.60;3.43;;;;;;;21.65;61.41;96428.47;2595241;54;21003;-74
2021/08/16 07:39:10;;;;;;;13.33;3.77;;;;;;;21.72;60.86;96423.28;2594149;36;20450;-73
2021/08/16 07:41:40;;;;;;;4.93;3.03;;;;;;;20.92;60.68;96419.13;2594508;39;21088;-74
2021/08/16 07:44:15;;;;;;;7.03;3.17;;;;;;;20.78;60.96;96426.03;2599704;36;20438;-73
2021/08/16 07:46:45;;;;;;;8.37;3.13;;;;;;;21.19;60.68;96419.63;2603738;54;20422;-73
2021/08/16 07:49:16;;;;;;;6.83;2.50;;;;;;;21.59;59.25;96415.88;2595309;31;21321;-73
2021/08/16 07:51:46;;;;;;;16.27;8.67;;;;;;;20.23;61.49;96427.69;2594608;54;21023;-73
2021/08/16 07:54:16;;;;;;;15.37;3.57;;;;;;;20.21;63.21;96421.72;2595958;36;20451;-75
2021/08/16 07:56:49;;;;;;;6.50;3.47;;;;;;;20.24;62.73;96426.66;2594119;47;20861;-75
2021/08/16 07:59:22;;;;;;;17.70;3.70;;;;;;;20.07;64.17;96430.34;2599030;36;20899;-75
2021/08/16 08:01:52;;;;;;;8.27;3.70;;;;;;;20.66;61.19;96414.94;2596619;54;20407;-76
2021/08/16 08:04:22;;;;;;;13.53;3.77;;;;;;;20.45;63.69;96423.47;2597562;36;20466;-75
2021/08/16 08:06:52;;;;;;;14.43;4.10;;;;;;;20.32;62.02;96429.31;2597502;54;20422;-75
2021/08/16 08:09:22;;;;;;;7.87;4.17;;;;;;;19.81;62.82;96419.94;2596145;36;20508;-74
2021/08/16 08:11:52;;;;;;;8.43;3.93;;;;;;;19.88;64.15;96418.28;2596544;54;20458;-75
2021/08/16 08:14:24;;;;;;;15.23;3.83;;;;;;;19.78;64.81;96426.44;2597560;36;20430;-76
2021/08/16 08:16:54;;;;;;;9.63;3.80;;;;;;;19.82;64.33;96433.06;2597851;39;20851;-74
2021/08/16 08:19:24;;;;;;;6.57;3.40;;;;;;;19.72;64.74;96433.22;2598000;36;20969;-74
2021/08/16 08:21:54;;;;;;;10.73;4.07;;;;;;;19.74;64.26;96433.91;2597283;54;20478;-74
2021/08/16 08:24:24;;;;;;;10.10;4.60;;;;;;;19.52;63.55;96416.78;2595946;31;20414;-75
2021/08/16 08:26:54;;;;;;;9.03;4.43;;;;;;;19.46;64.39;96428.03;2596248;54;20416;-74
2021/08/16 08:29:26;;;;;;;11.17;3.90;;;;;;;19.45;66.24;96442.31;2596704;36;20415;-75
2021/08/16 08:31:56;;;;;;;9.47;4.03;;;;;;;19.40;64.33;96444.63;2596145;39;20776;-75
2021/08/16 08:34:26;;;;;;;11.30;4.10;;;;;;;19.08;64.83;96445.41;2596155;36;20679;-74
2021/08/16 08:36:55;;;;;;;16.70;4.90;;;;;;;18.80;65.26;96450.13;2596469;39;20853;-75
2021/08/16 08:39:25;;;;;;;8.53;3.80;;;;;;;18.89;66.96;96449.16;2597935;36;20998;-75
2021/08/16 08:42:00;;;;;;;11.70;4.13;;;;;;;18.88;66.67;96445.69;2596016;54;20550;-76
2021/08/16 08:44:33;;;;;;;8.77;3.60;;;;;;;18.46;66.09;96449.13;2596023;31;20422;-74
2021/08/16 08:47:03;;;;;;;10.93;4.50;;;;;;;18.43;67.01;96448.63;2595214;54;20418;-75
2021/08/16 08:49:33;;;;;;;8.57;4.60;;;;;;;18.81;66.49;96449.16;2595056;36;21200;-75
2021/08/16 08:52:03;;;;;;;9.17;3.83;;;;;;;19.04;65.33;96452.03;2595476;54;20426;-75
2021/08/16 08:54:34;;;;;;;9.47;3.50;;;;;;;19.21;64.76;96450.22;2596017;36;21020;-76
2021/08/16 08:57:27;;;;;;;12.07;4.73;;;;;;;19.53;64.46;96450.28;2596091;54;20918;-74
2021/08/16 09:00:00;;;;;;;10.20;4.20;;;;;;;19.82;63.72;96454.31;2595910;36;20415;-76
2021/08/16 09:02:30;;;;;;;11.03;4.03;;;;;;;19.34;64.21;96451.41;2597534;54;20997;-76
2021/08/16 09:05:03;;;;;;;11.00;4.90;;;;;;;19.15;64.85;96447.25;2598408;36;20958;-75
2021/08/16 09:07:34;;;;;;;10.50;4.00;;;;;;;19.37;64.34;96455.59;2596577;39;20902;-76
2021/08/16 09:10:06;;;;;;;8.40;3.57;;;;;;;19.51;63.76;96452.28;2596588;36;20941;-74
2021/08/16 09:12:37;;;;;;;10.90;3.60;;;;;;;19.88;63.00;96452.81;2595694;54;20480;-76
2021/08/16 09:15:17;;;;;;;12.50;3.77;;;;;;;19.61;62.97;96456.59;2595122;36;21179;-75
2021/08/16 09:17:48;;;;;;;14.40;4.00;;;;;;;19.75;61.56;96448.81;2594851;39;20910;-76
2021/08/16 09:20:22;;;;;;;9.23;3.30;;;;;;;19.45;63.40;96455.59;2595468;36;20436;-74
2021/08/16 09:23:00;;;;;;;14.60;4.43;;;;;;;19.30;64.81;96457.22;2594592;54;20403;-75
2021/08/16 09:25:35;;;;;;;9.97;3.67;;;;;;;18.98;63.61;96444.72;2595052;36;20841;-74
2021/08/16 09:28:06;;;;;;;11.03;4.17;;;;;;;18.59;64.11;96451.34;2594614;54;21328;-75
2021/08/16 09:30:41;;;;;;;13.13;3.57;;;;;;;18.56;64.10;96441.03;2594265;36;20930;-75
2021/08/16 09:33:19;;;;;;;16.80;3.60;;;;;;;18.70;65.05;96447.56;2594398;54;20908;-76
2021/08/16 09:35:56;;;;;;;10.40;3.47;;;;;;;19.15;64.01;96436.63;2593948;36;20445;-74
2021/08/16 09:38:40;;;;;;;10.20;3.13;;;;;;;19.40;61.54;96415.41;2594080;36;21339;-76
2021/08/16 09:41:24;;;;;;;9.40;3.53;;;;;;;19.99;60.63;96436.50;2599114;54;20418;-77
2021/08/16 09:43:56;;;;;;;9.23;3.60;;;;;;;20.71;57.33;96441.84;2600140;36;20545;-75
2021/08/16 09:46:29;;;;;;;10.47;3.67;;;;;;;20.85;57.35;96434.94;2595037;39;20885;-76
2021/08/16 09:48:59;;;;;;;8.80;3.67;;;;;;;22.53;54.05;96406.66;2594306;36;20582;-73
2021/08/16 09:51:29;;;;;;;16.60;7.30;;;;;;;22.50;52.91;96405.19;2594590;54;20415;-73
2021/08/16 09:54:00;;;;;;;10.70;4.40;;;;;;;22.27;52.94;96403.44;2593394;36;20449;-73
2021/08/16 09:56:31;;;;;;;10.80;3.90;;;;;;;22.34;53.63;96418.72;2600177;54;20962;-73
2021/08/16 09:59:02;;;;;;;7.40;3.83;;;;;;;21.83;53.74;96414.84;2594908;36;20430;-73
2021/08/16 10:01:35;;;;;;;20.33;3.90;;;;;;;21.65;53.37;96415.16;2594403;54;20423;-73
2021/08/16 10:04:05;;;;;;;17.70;3.70;;;;;;;21.27;55.08;96408.94;2594005;36;20970;-75
2021/08/16 10:06:36;;;;;;;10.03;2.90;;;;;;;21.66;55.10;96418.66;2595584;54;20423;-74
2021/08/16 10:09:06;;;;;;;9.83;3.70;;;;;;;22.21;52.55;96411.31;2595395;36;20437;-75
2021/08/16 10:11:39;;;;;;;10.30;3.80;;;;;;;21.64;52.83;96402.88;2597364;54;20989;-74
2021/08/16 10:14:09;;;;;;;13.17;3.87;;;;;;;20.88;54.53;96428.47;2593883;36;20442;-73
2021/08/16 10:16:48;;;;;;;15.03;4.70;;;;;;;20.58;55.31;96422.94;2594219;54;20455;-73
2021/08/16 10:19:21;;;;;;;11.80;4.00;;;;;;;20.81;55.75;96422.19;2594291;36;20917;-74
2021/08/16 10:21:52;;;;;;;7.50;2.77;;;;;;;21.21;54.92;96412.28;2594368;54;20423;-73
2021/08/16 10:24:28;;;;;;;10.10;3.57;;;;;;;21.07;54.81;96417.41;2594378;36;20426;-73
2021/08/16 10:27:01;;;;;;;9.40;3.30;;;;;;;21.24;53.38;96410.09;2594380;54;21005;-73
2021/08/16 10:29:31;;;;;;;8.33;3.50;;;;;;;21.31;54.95;96415.56;2594863;36;20786;-73
2021/08/16 10:32:05;;;;;;;11.70;3.60;;;;;;;21.14;55.23;96405.00;2593380;47;21295;-73
2021/08/16 10:34:37;;;;;;;11.53;3.40;;;;;;;20.51;56.13;96413.97;2594624;36;20844;-73
2021/08/16 10:37:10;;;;;;;7.90;3.33;;;;;;;20.25;56.13;96417.72;2595359;54;20915;-74
2021/08/16 10:39:42;;;;;;;10.43;2.70;;;;;;;19.95;57.22;96424.56;2595879;36;20918;-74
2021/08/16 10:42:14;;;;;;;12.13;3.20;;;;;;;19.46;58.36;96417.41;2594107;39;20770;-74
2021/08/16 10:44:46;;;;;;;8.53;2.90;;;;;;;19.29;59.25;96421.06;2593859;36;20426;-74
2021/08/16 10:47:30;;;;;;;7.63;2.87;;;;;;;20.03;57.84;96421.06;2592845;39;20762;-73
2021/08/16 10:50:07;;;;;;;20.00;4.83;;;;;;;20.01;58.40;96418.56;2593748;36;20426;-74
2021/08/16 10:52:38;;;;;;;7.73;3.03;;;;;;;19.81;57.44;96420.75;2593778;54;21202;-74
2021/08/16 10:55:13;;;;;;;18.50;8.50;;;;;;;20.13;57.89;96413.72;2593535;31;20549;-74
2021/08/16 10:57:44;;;;;;;7.87;3.10;;;;;;;20.22;56.58;96399.44;2594844;54;20458;-73
2021/08/16 11:00:16;;;;;;;10.17;4.00;;;;;;;20.49;56.29;96397.34;2593735;31;20414;-74
2021/08/16 11:02:56;;;;;;;9.67;3.73;;;;;;;20.25;56.32;96396.44;2593719;54;20945;-74
2021/08/16 11:05:34;;;;;;;9.20;3.33;;;;;;;20.12;55.96;96401.47;2593675;36;20490;-74
2021/08/16 11:08:05;;;;;;;8.93;2.80;;;;;;;20.31;55.19;96409.03;2593156;39;20839;-73
2021/08/16 11:10:43;;;;;;;9.70;3.27;;;;;;;20.92;53.16;96392.53;2594732;36;20787;-74
2021/08/16 11:13:18;;;;;;;7.63;3.00;;;;;;;20.76;55.28;96392.59;2594912;39;20778;-74
2021/08/16 11:15:51;;;;;;;8.93;2.90;;;;;;;20.84;56.07;96387.25;2594101;36;20556;-74
2021/08/16 11:18:26;;;;;;;14.03;3.30;;;;;;;20.55;55.59;96392.16;2594505;36;20432;-74
2021/08/16 11:21:01;;;;;;;7.17;3.20;;;;;;;20.41;55.89;96392.91;2595608;54;20441;-75
2021/08/16 11:23:31;;;;;;;7.73;3.27;;;;;;;20.46;56.74;96387.88;2594391;36;20501;-72
2021/08/16 11:26:01;;;;;;;9.53;3.87;;;;;;;22.03;52.32;96385.00;2593924;54;20418;-73
2021/08/16 11:28:33;;;;;;;8.73;3.33;;;;;;;22.97;50.33;96384.41;2594427;31;20831;-74
2021/08/16 11:31:06;;;;;;;7.90;3.00;;;;;;;23.64;48.05;96377.91;2593952;39;20770;-74
2021/08/16 11:33:39;;;;;;;13.40;4.10;;;;;;;23.29;48.47;96372.44;2593737;36;20851;-74
2021/08/16 11:36:11;;;;;;;7.67;3.03;;;;;;;23.22;46.95;96380.38;2594151;54;20946;-74
2021/08/16 11:38:43;;;;;;;8.87;2.93;;;;;;;22.61;48.61;96374.53;2597569;36;21109;-75
2021/08/16 11:41:14;;;;;;;15.20;4.00;;;;;;;22.89;48.58;96361.31;2597673;54;21295;-74
2021/08/16 11:44:12;;;;;;;5.80;3.17;;;;;;;21.62;51.32;96380.91;2596945;36;20427;-73
2021/08/16 11:46:43;;;;;;;8.23;3.50;;;;;;;21.40;52.25;96374.53;2594597;39;20753;-74